sensor_id;sensor_type;location;lat;lon;timestamp;pressure;altitude;pressure_sealevel;temperature;humidity
20620;BME280;10469;42.720;23.252;2022-09-01T00:01:04;94724.69;;;16.97;100.00
20620;BME280;10469;42.720;23.252;2022-09-01T00:03:32;94720.34;;;16.96;100.00
20620;BME280;10469;42.720;23.252;2022-09-01T00:05:59;94727.38;;;17.02;100.00
20620;BME280;10469;42.720;23.252;2022-09-01T00:08:24;94717.13;;;16.94;100.00
20620;BME280;10469;42.720;23.252;2022-09-01T00:10:50;94720.63;;;16.94;100.00
20620;BME280;10469;42.720;23.252;2022-09-01T00:13:16;94724.47;;;16.88;100.00
20620;BME280;10469;42.720;23.252;2022-09-01T00:15:42;94724.69;;;16.97;100.00
20620;BME280;10469;42.720;23.252;2022-09-01T00:18:08;94724.41;;;16.98;100.00
20620;BME280;10469;42.720;23.252;2022-09-01T00:20:33;94719.06;;;16.83;100.00
20620;BME280;10469;42.720;23.252;2022-09-01T00:22:59;94722.34;;;16.75;100.00
20620;BME280;10469;42.720;23.252;2022-09-01T00:25:27;94714.81;;;16.67;100.00
20620;BME280;10469;42.720;23.252;2022-09-01T00:27:59;94701.34;;;16.51;100.00
20620;BME280;10469;42.720;23.252;2022-09-01T00:30:29;94723.19;;;16.65;100.00
20620;BME280;10469;42.720;23.252;2022-09-01T00:32:55;94710.25;;;16.52;100.00
20620;BME280;10469;42.720;23.252;2022-09-01T00:35:20;94726.03;;;16.29;100.00
20620;BME280;10469;42.720;23.252;2022-09-01T00:37:46;94731.50;;;16.14;100.00
20620;BME280;10469;42.720;23.252;2022-09-01T00:40:14;94719.69;;;15.85;100.00
20620;BME280;10469;42.720;23.252;2022-09-01T00:42:40;94732.66;;;15.72;100.00
20620;BME280;10469;42.720;23.252;2022-09-01T00:45:08;94737.00;;;15.68;100.00
20620;BME280;10469;42.720;23.252;2022-09-01T00:47:35;94735.06;;;15.48;100.00
20620;BME280;10469;42.720;23.252;2022-09-01T00:50:02;94736.16;;;15.57;100.00
20620;BME280;10469;42.720;23.252;2022-09-01T00:52:34;94732.09;;;15.75;100.00
20620;BME280;10469;42.720;23.252;2022-09-01T00:55:03;94738.59;;;15.79;100.00
20620;BME280;10469;42.720;23.252;2022-09-01T00:57:31;94735.09;;;15.74;100.00
20620;BME280;10469;42.720;23.252;2022-09-01T01:00:01;94745.09;;;15.68;100.00
20620;BME280;10469;42.720;23.252;2022-09-01T01:02:28;94749.44;;;15.69;100.00
20620;BME280;10469;42.720;23.252;2022-09-01T01:04:53;94760.78;;;15.76;100.00
20620;BME280;10469;42.720;23.252;2022-09-01T01:07:24;94749.69;;;15.73;100.00
20620;BME280;10469;42.720;23.252;2022-09-01T01:09:51;94757.53;;;15.69;100.00
20620;BME280;10469;42.720;23.252;2022-09-01T01:12:19;94756.19;;;15.72;100.00
20620;BME280;10469;42.720;23.252;2022-09-01T01:14:47;94745.91;;;15.69;100.00
20620;BME280;10469;42.720;23.252;2022-09-01T01:17:17;94740.78;;;15.72;100.00
20620;BME280;10469;42.720;23.252;2022-09-01T01:19:53;94752.13;;;15.74;100.00
20620;BME280;10469;42.720;23.252;2022-09-01T01:25:51;94734.81;;;15.86;100.00
20620;BME280;10469;42.720;23.252;2022-09-01T01:28:26;94739.13;;;15.92;100.00
20620;BME280;10469;42.720;23.252;2022-09-01T01:33:45;94733.69;;;15.97;100.00
20620;BME280;10469;42.720;23.252;2022-09-01T01:36:25;94739.66;;;15.99;100.00
20620;BME280;10469;42.720;23.252;2022-09-01T01:39:08;94739.34;;;16.05;100.00
20620;BME280;10469;42.720;23.252;2022-09-01T01:41:34;94742.88;;;16.06;100.00
20620;BME280;10469;42.720;23.252;2022-09-01T01:44:01;94748.53;;;16.20;100.00
20620;BME280;10469;42.720;23.252;2022-09-01T01:46:29;94746.66;;;16.10;100.00
20620;BME280;10469;42.720;23.252;2022-09-01T01:48:55;94745.28;;;16.18;100.00
20620;BME280;10469;42.720;23.252;2022-09-01T01:51:22;94757.47;;;16.20;100.00
20620;BME280;10469;42.720;23.252;2022-09-01T01:53:53;94750.97;;;16.16;100.00
20620;BME280;10469;42.720;23.252;2022-09-01T01:56:20;94765.31;;;16.12;100.00
20620;BME280;10469;42.720;23.252;2022-09-01T01:58:53;94770.19;;;16.04;100.00
20620;BME280;10469;42.720;23.252;2022-09-01T02:01:26;94769.41;;;16.04;100.00
20620;BME280;10469;42.720;23.252;2022-09-01T02:03:54;94778.03;;;16.16;100.00
20620;BME280;10469;42.720;23.252;2022-09-01T02:06:21;94778.59;;;16.08;100.00
20620;BME280;10469;42.720;23.252;2022-09-01T02:08:52;94769.91;;;16.16;100.00
20620;BME280;10469;42.720;23.252;2022-09-01T02:11:22;94778.56;;;16.13;100.00
20620;BME280;10469;42.720;23.252;2022-09-01T02:13:48;94770.16;;;16.15;100.00
20620;BME280;10469;42.720;23.252;2022-09-01T02:16:14;94778.00;;;16.21;100.00
20620;BME280;10469;42.720;23.252;2022-09-01T02:18:45;94774.22;;;16.17;100.00
20620;BME280;10469;42.720;23.252;2022-09-01T02:21:14;94778.81;;;16.27;100.00
20620;BME280;10469;42.720;23.252;2022-09-01T02:23:49;94776.91;;;16.27;100.00
20620;BME280;10469;42.720;23.252;2022-09-01T02:26:15;94779.66;;;16.12;100.00
20620;BME280;10469;42.720;23.252;2022-09-01T02:28:45;94776.66;;;16.14;100.00
20620;BME280;10469;42.720;23.252;2022-09-01T02:31:13;94772.88;;;16.10;100.00
20620;BME280;10469;42.720;23.252;2022-09-01T02:33:40;94763.41;;;16.22;100.00
20620;BME280;10469;42.720;23.252;2022-09-01T02:36:12;94766.69;;;16.04;100.00
20620;BME280;10469;42.720;23.252;2022-09-01T02:38:40;94771.28;;;16.03;100.00
20620;BME280;10469;42.720;23.252;2022-09-01T02:41:08;94765.06;;;16.08;100.00
20620;BME280;10469;42.720;23.252;2022-09-01T02:43:33;94743.97;;;16.00;100.00
20620;BME280;10469;42.720;23.252;2022-09-01T02:46:00;94759.66;;;16.03;100.00
20620;BME280;10469;42.720;23.252;2022-09-01T02:48:32;94754.28;;;15.98;100.00
20620;BME280;10469;42.720;23.252;2022-09-01T02:51:01;94754.28;;;15.72;100.00
20620;BME280;10469;42.720;23.252;2022-09-01T02:53:28;94750.22;;;15.60;100.00
20620;BME280;10469;42.720;23.252;2022-09-01T02:55:55;94760.78;;;15.76;100.00
20620;BME280;10469;42.720;23.252;2022-09-01T02:58:27;94755.63;;;15.70;100.00
20620;BME280;10469;42.720;23.252;2022-09-01T03:00:55;94761.31;;;15.68;100.00
20620;BME280;10469;42.720;23.252;2022-09-01T03:03:22;94757.25;;;15.50;100.00
20620;BME280;10469;42.720;23.252;2022-09-01T03:05:50;94772.38;;;15.51;100.00
20620;BME280;10469;42.720;23.252;2022-09-01T03:08:23;94770.19;;;15.59;100.00
20620;BME280;10469;42.720;23.252;2022-09-01T03:10:50;94762.09;;;15.48;100.00
20620;BME280;10469;42.720;23.252;2022-09-01T03:13:20;94765.34;;;15.50;100.00
20620;BME280;10469;42.720;23.252;2022-09-01T03:15:46;94769.94;;;15.40;100.00
20620;BME280;10469;42.720;23.252;2022-09-01T03:18:13;94763.72;;;15.39;100.00
20620;BME280;10469;42.720;23.252;2022-09-01T03:20:40;94765.06;;;15.26;100.00
20620;BME280;10469;42.720;23.252;2022-09-01T03:23:13;94770.16;;;15.18;100.00
20620;BME280;10469;42.720;23.252;2022-09-01T03:25:41;94767.72;;;15.01;100.00
20620;BME280;10469;42.720;23.252;2022-09-01T03:28:07;94762.53;;;14.89;100.00
20620;BME280;10469;42.720;23.252;2022-09-01T03:30:35;94779.53;;;14.85;100.00
20620;BME280;10469;42.720;23.252;2022-09-01T03:33:04;94774.13;;;14.79;100.00
20620;BME280;10469;42.720;23.252;2022-09-01T03:35:29;94771.69;;;14.78;100.00
20620;BME280;10469;42.720;23.252;2022-09-01T03:37:57;94767.09;;;14.68;100.00
20620;BME280;10469;42.720;23.252;2022-09-01T03:40:26;94782.78;;;14.82;100.00
20620;BME280;10469;42.720;23.252;2022-09-01T03:42:53;94782.53;;;14.93;100.00
20620;BME280;10469;42.720;23.252;2022-09-01T03:45:18;94780.91;;;14.97;100.00
20620;BME280;10469;42.720;23.252;2022-09-01T03:47:45;94766.84;;;14.85;100.00
20620;BME280;10469;42.720;23.252;2022-09-01T03:50:18;94780.94;;;15.02;100.00
20620;BME280;10469;42.720;23.252;2022-09-01T03:52:49;94784.44;;;14.98;100.00
20620;BME280;10469;42.720;23.252;2022-09-01T03:55:18;94787.19;;;15.18;100.00
20620;BME280;10469;42.720;23.252;2022-09-01T03:57:54;94797.47;;;15.31;100.00
20620;BME280;10469;42.720;23.252;2022-09-01T04:00:22;94793.97;;;15.21;100.00
20620;BME280;10469;42.720;23.252;2022-09-01T04:02:49;94792.06;;;15.16;100.00
20620;BME280;10469;42.720;23.252;2022-09-01T04:05:19;94791.53;;;15.35;100.00
20620;BME280;10469;42.720;23.252;2022-09-01T04:07:50;94790.97;;;15.27;100.00
20620;BME280;10469;42.720;23.252;2022-09-01T04:10:17;94787.50;;;15.42;100.00
20620;BME280;10469;42.720;23.252;2022-09-01T04:12:43;94794.25;;;15.50;100.00
20620;BME280;10469;42.720;23.252;2022-09-01T04:15:11;94795.38;;;15.64;100.00
20620;BME280;10469;42.720;23.252;2022-09-01T04:17:37;94779.38;;;15.27;100.00
20620;BME280;10469;42.720;23.252;2022-09-01T04:20:21;94792.06;;;15.31;100.00
20620;BME280;10469;42.720;23.252;2022-09-01T04:22:48;94784.81;;;15.42;100.00
20620;BME280;10469;42.720;23.252;2022-09-01T04:25:16;94780.69;;;15.14;100.00
20620;BME280;10469;42.720;23.252;2022-09-01T04:27:41;94780.97;;;15.18;100.00
20620;BME280;10469;42.720;23.252;2022-09-01T04:30:10;94791.53;;;15.45;100.00
20620;BME280;10469;42.720;23.252;2022-09-01T04:32:36;94795.06;;;15.61;100.00
20620;BME280;10469;42.720;23.252;2022-09-01T04:35:03;94786.44;;;15.79;100.00
20620;BME280;10469;42.720;23.252;2022-09-01T04:37:29;94792.38;;;15.96;100.00
20620;BME280;10469;42.720;23.252;2022-09-01T04:39:55;94778.09;;;15.80;100.00
20620;BME280;10469;42.720;23.252;2022-09-01T04:42:22;94781.03;;;16.04;100.00
20620;BME280;10469;42.720;23.252;2022-09-01T04:44:52;94787.25;;;16.15;100.00
20620;BME280;10469;42.720;23.252;2022-09-01T04:47:18;94786.69;;;16.13;100.00
20620;BME280;10469;42.720;23.252;2022-09-01T04:49:55;94785.38;;;15.90;100.00
20620;BME280;10469;42.720;23.252;2022-09-01T04:52:23;94778.59;;;15.52;100.00
20620;BME280;10469;42.720;23.252;2022-09-01T04:54:49;94784.28;;;15.71;100.00
20620;BME280;10469;42.720;23.252;2022-09-01T04:57:14;94781.34;;;15.72;100.00
20620;BME280;10469;42.720;23.252;2022-09-01T04:59:41;94779.13;;;16.05;100.00
20620;BME280;10469;42.720;23.252;2022-09-01T05:02:08;94776.16;;;16.01;100.00
20620;BME280;10469;42.720;23.252;2022-09-01T05:04:33;94778.28;;;16.10;100.00
20620;BME280;10469;42.720;23.252;2022-09-01T05:07:00;94774.69;;;16.45;100.00
20620;BME280;10469;42.720;23.252;2022-09-01T05:09:28;94778.28;;;16.15;100.00
20620;BME280;10469;42.720;23.252;2022-09-01T05:11:54;94776.94;;;16.17;100.00
20620;BME280;10469;42.720;23.252;2022-09-01T05:14:20;94762.06;;;16.15;100.00
20620;BME280;10469;42.720;23.252;2022-09-01T05:16:48;94762.34;;;16.08;100.00
20620;BME280;10469;42.720;23.252;2022-09-01T05:19:14;94750.97;;;16.16;100.00
20620;BME280;10469;42.720;23.252;2022-09-01T05:21:46;94762.28;;;16.39;100.00
20620;BME280;10469;42.720;23.252;2022-09-01T05:24:18;94759.53;;;16.44;100.00
20620;BME280;10469;42.720;23.252;2022-09-01T05:26:45;94768.19;;;16.51;100.00
20620;BME280;10469;42.720;23.252;2022-09-01T05:29:12;94770.03;;;16.61;100.00
20620;BME280;10469;42.720;23.252;2022-09-01T05:31:45;94757.03;;;16.73;100.00
20620;BME280;10469;42.720;23.252;2022-09-01T05:34:12;94764.88;;;16.74;100.00
20620;BME280;10469;42.720;23.252;2022-09-01T05:36:44;94760.53;;;16.78;100.00
20620;BME280;10469;42.720;23.252;2022-09-01T05:39:10;94770.97;;;17.00;100.00
20620;BME280;10469;42.720;23.252;2022-09-01T05:41:37;94758.28;;;16.91;100.00
20620;BME280;10469;42.720;23.252;2022-09-01T05:44:04;94757.81;;;16.78;100.00
20620;BME280;10469;42.720;23.252;2022-09-01T05:46:31;94762.72;;;16.61;100.00
20620;BME280;10469;42.720;23.252;2022-09-01T05:48:57;94755.25;;;16.38;100.00
20620;BME280;10469;42.720;23.252;2022-09-01T05:51:24;94760.84;;;16.56;100.00
20620;BME280;10469;42.720;23.252;2022-09-01T05:53:54;94767.88;;;16.63;100.00
20620;BME280;10469;42.720;23.252;2022-09-01T05:56:24;94768.44;;;16.60;100.00
20620;BME280;10469;42.720;23.252;2022-09-01T05:58:50;94773.31;;;16.63;100.00
20620;BME280;10469;42.720;23.252;2022-09-01T06:01:28;94767.06;;;16.67;100.00
20620;BME280;10469;42.720;23.252;2022-09-01T06:03:56;94760.56;;;16.73;100.00
20620;BME280;10469;42.720;23.252;2022-09-01T06:06:28;94756.13;;;16.93;100.00
20620;BME280;10469;42.720;23.252;2022-09-01T06:08:54;94751.38;;;17.14;100.00
20620;BME280;10469;42.720;23.252;2022-09-01T06:11:26;94737.47;;;17.30;100.00
20620;BME280;10469;42.720;23.252;2022-09-01T06:13:52;94749.72;;;17.57;100.00
20620;BME280;10469;42.720;23.252;2022-09-01T06:16:20;94749.72;;;17.23;100.00
20620;BME280;10469;42.720;23.252;2022-09-01T06:18:46;94749.53;;;17.83;100.00
20620;BME280;10469;42.720;23.252;2022-09-01T06:21:12;94730.31;;;17.45;100.00
20620;BME280;10469;42.720;23.252;2022-09-01T06:23:40;94743.06;;;17.78;100.00
20620;BME280;10469;42.720;23.252;2022-09-01T06:26:14;94737.56;;;17.54;100.00
20620;BME280;10469;42.720;23.252;2022-09-01T06:28:42;94738.56;;;17.98;100.00
20620;BME280;10469;42.720;23.252;2022-09-01T06:31:07;94739.63;;;18.02;100.00
20620;BME280;10469;42.720;23.252;2022-09-01T06:33:33;94734.16;;;18.79;100.00
20620;BME280;10469;42.720;23.252;2022-09-01T06:36:00;94731.22;;;18.75;100.00
20620;BME280;10469;42.720;23.252;2022-09-01T06:38:28;94729.13;;;18.67;100.00
20620;BME280;10469;42.720;23.252;2022-09-01T06:41:04;94724.41;;;18.97;100.00
20620;BME280;10469;42.720;23.252;2022-09-01T06:43:36;94732.03;;;18.95;100.00
20620;BME280;10469;42.720;23.252;2022-09-01T06:46:04;94720.22;;;19.61;100.00
20620;BME280;10469;42.720;23.252;2022-09-01T06:48:29;94722.47;;;20.19;100.00
20620;BME280;10469;42.720;23.252;2022-09-01T06:50:59;94706.88;;;20.39;100.00
20620;BME280;10469;42.720;23.252;2022-09-01T06:53:25;94712.03;;;21.32;100.00
20620;BME280;10469;42.720;23.252;2022-09-01T06:55:51;94717.16;;;20.69;100.00
20620;BME280;10469;42.720;23.252;2022-09-01T06:58:17;94718.91;;;20.05;100.00
20620;BME280;10469;42.720;23.252;2022-09-01T07:00:42;94710.28;;;21.36;100.00
20620;BME280;10469;42.720;23.252;2022-09-01T07:03:12;94718.28;;;21.18;100.00
20620;BME280;10469;42.720;23.252;2022-09-01T07:05:40;94707.22;;;23.33;100.00
20620;BME280;10469;42.720;23.252;2022-09-01T07:08:08;94697.25;;;22.79;100.00
20620;BME280;10469;42.720;23.252;2022-09-01T07:10:40;94707.59;;;24.21;100.00
20620;BME280;10469;42.720;23.252;2022-09-01T07:13:11;94700.78;;;23.81;100.00
20620;BME280;10469;42.720;23.252;2022-09-01T07:15:44;94699.47;;;23.87;100.00
20620;BME280;10469;42.720;23.252;2022-09-01T07:18:17;94700.88;;;25.46;100.00
20620;BME280;10469;42.720;23.252;2022-09-01T07:20:43;94695.72;;;25.98;100.00
20620;BME280;10469;42.720;23.252;2022-09-01T07:23:09;94696.97;;;26.22;100.00
20620;BME280;10469;42.720;23.252;2022-09-01T07:25:40;94700.78;;;25.34;100.00
20620;BME280;10469;42.720;23.252;2022-09-01T07:28:08;94705.47;;;25.12;100.00
20620;BME280;10469;42.720;23.252;2022-09-01T08:06:16;94683.91;;;27.41;99.51
20620;BME280;10469;42.720;23.252;2022-09-01T08:08:49;94693.81;;;26.11;100.00
20620;BME280;10469;42.720;23.252;2022-09-01T08:11:27;94692.47;;;26.17;100.00
20620;BME280;10469;42.720;23.252;2022-09-01T08:13:54;94687.81;;;26.42;100.00
20620;BME280;10469;42.720;23.252;2022-09-01T08:16:19;94685.81;;;26.88;100.00
20620;BME280;10469;42.720;23.252;2022-09-01T08:18:46;94679.53;;;27.12;100.00
20620;BME280;10469;42.720;23.252;2022-09-01T08:21:12;94681.22;;;26.68;100.00
20620;BME280;10469;42.720;23.252;2022-09-01T08:23:38;94669.47;;;26.22;100.00
20620;BME280;10469;42.720;23.252;2022-09-01T08:26:06;94682.78;;;26.32;100.00
20620;BME280;10469;42.720;23.252;2022-09-01T08:28:31;94686.84;;;28.77;94.69
20620;BME280;10469;42.720;23.252;2022-09-01T08:30:58;94678.16;;;28.31;93.31
20620;BME280;10469;42.720;23.252;2022-09-01T08:33:25;94678.94;;;28.59;89.47
20620;BME280;10469;42.720;23.252;2022-09-01T08:35:51;94677.63;;;28.25;91.53
20620;BME280;10469;42.720;23.252;2022-09-01T08:38:17;94667.34;;;27.25;95.39
20620;BME280;10469;42.720;23.252;2022-09-01T08:40:52;94676.13;;;28.27;92.54
20620;BME280;10469;42.720;23.252;2022-09-01T08:46:11;94665.00;;;29.19;90.00
20620;BME280;10469;42.720;23.252;2022-09-01T08:48:40;94654.38;;;27.94;94.26
20620;BME280;10469;42.720;23.252;2022-09-01T08:51:45;94645.44;;;29.08;86.68
20620;BME280;10469;42.720;23.252;2022-09-01T08:56:46;94633.78;;;30.81;72.56
20620;BME280;10469;42.720;23.252;2022-09-01T08:59:14;94640.19;;;30.39;68.67
20620;BME280;10469;42.720;23.252;2022-09-01T09:04:58;94633.44;;;29.74;71.16
20620;BME280;10469;42.720;23.252;2022-09-01T09:10:57;94625.09;;;27.74;85.19
20620;BME280;10469;42.720;23.252;2022-09-01T09:13:42;94622.50;;;30.01;74.11
20620;BME280;10469;42.720;23.252;2022-09-01T09:16:15;94632.78;;;29.07;75.71
20620;BME280;10469;42.720;23.252;2022-09-01T09:21:17;94625.66;;;31.78;63.13
20620;BME280;10469;42.720;23.252;2022-09-01T09:23:47;94615.00;;;33.06;54.95
20620;BME280;10469;42.720;23.252;2022-09-01T09:26:15;94617.81;;;31.23;58.07
20620;BME280;10469;42.720;23.252;2022-09-01T09:28:45;94609.72;;;31.38;60.01
20620;BME280;10469;42.720;23.252;2022-09-01T09:31:30;94615.34;;;30.19;66.26
20620;BME280;10469;42.720;23.252;2022-09-01T09:33:56;94604.94;;;33.46;52.18
20620;BME280;10469;42.720;23.252;2022-09-01T09:36:35;94606.84;;;32.80;52.92
20620;BME280;10469;42.720;23.252;2022-09-01T09:39:21;94608.06;;;33.41;46.40
20620;BME280;10469;42.720;23.252;2022-09-01T09:42:04;94592.03;;;32.20;49.65
20620;BME280;10469;42.720;23.252;2022-09-01T09:44:39;94594.50;;;33.25;50.58
20620;BME280;10469;42.720;23.252;2022-09-01T09:47:08;94589.81;;;32.37;52.92
20620;BME280;10469;42.720;23.252;2022-09-01T09:49:34;94593.59;;;33.87;47.63
20620;BME280;10469;42.720;23.252;2022-09-01T09:52:16;94597.31;;;34.73;45.30
20620;BME280;10469;42.720;23.252;2022-09-01T09:54:59;94581.41;;;34.74;44.07
20620;BME280;10469;42.720;23.252;2022-09-01T09:57:25;94581.28;;;35.59;41.99
20620;BME280;10469;42.720;23.252;2022-09-01T10:11:57;94576.81;;;32.00;47.84
20620;BME280;10469;42.720;23.252;2022-09-01T10:14:41;94563.09;;;31.17;47.16
20620;BME280;10469;42.720;23.252;2022-09-01T10:17:15;94573.81;;;30.88;50.53
20620;BME280;10469;42.720;23.252;2022-09-01T10:19:52;94570.78;;;31.57;50.25
20620;BME280;10469;42.720;23.252;2022-09-01T10:22:19;94569.84;;;32.61;46.77
20620;BME280;10469;42.720;23.252;2022-09-01T10:24:45;94559.50;;;34.11;42.79
20620;BME280;10469;42.720;23.252;2022-09-01T10:27:23;94561.53;;;36.61;37.99
20620;BME280;10469;42.720;23.252;2022-09-01T10:29:55;94548.78;;;34.67;39.61
20620;BME280;10469;42.720;23.252;2022-09-01T10:32:24;94551.50;;;34.06;44.22
20620;BME280;10469;42.720;23.252;2022-09-01T10:34:51;94554.22;;;35.38;42.38
20620;BME280;10469;42.720;23.252;2022-09-01T10:37:18;94548.66;;;35.35;41.75
20620;BME280;10469;42.720;23.252;2022-09-01T10:42:39;94539.78;;;37.93;35.68
20620;BME280;10469;42.720;23.252;2022-09-01T10:45:19;94541.91;;;37.85;34.96
20620;BME280;10469;42.720;23.252;2022-09-01T10:47:53;94537.69;;;39.45;32.87
20620;BME280;10469;42.720;23.252;2022-09-01T10:50:29;94534.41;;;40.92;30.78
20620;BME280;10469;42.720;23.252;2022-09-01T10:53:02;94537.66;;;35.98;35.94
20620;BME280;10469;42.720;23.252;2022-09-01T10:59:09;94521.44;;;33.28;40.11
20620;BME280;10469;42.720;23.252;2022-09-01T11:04:11;94517.47;;;33.22;42.29
20620;BME280;10469;42.720;23.252;2022-09-01T11:09:15;94511.53;;;32.10;44.49
20620;BME280;10469;42.720;23.252;2022-09-01T11:11:46;94516.09;;;31.54;45.69
20620;BME280;10469;42.720;23.252;2022-09-01T11:14:21;94508.50;;;30.57;48.94
20620;BME280;10469;42.720;23.252;2022-09-01T11:19:42;94517.91;;;29.41;53.67
20620;BME280;10469;42.720;23.252;2022-09-01T11:30:08;94498.22;;;30.31;51.79
20620;BME280;10469;42.720;23.252;2022-09-01T11:32:36;94477.84;;;32.11;45.36
20620;BME280;10469;42.720;23.252;2022-09-01T11:35:04;94476.22;;;32.58;44.43
20620;BME280;10469;42.720;23.252;2022-09-01T11:37:32;94467.16;;;32.68;41.17
20620;BME280;10469;42.720;23.252;2022-09-01T11:39:59;94469.88;;;33.41;39.74
20620;BME280;10469;42.720;23.252;2022-09-01T11:42:33;94464.88;;;34.18;39.35
20620;BME280;10469;42.720;23.252;2022-09-01T11:45:17;94463.63;;;33.55;39.93
20620;BME280;10469;42.720;23.252;2022-09-01T11:47:57;94465.06;;;33.20;40.42
20620;BME280;10469;42.720;23.252;2022-09-01T11:50:36;94458.63;;;32.95;40.52
20620;BME280;10469;42.720;23.252;2022-09-01T11:53:03;94456.53;;;32.22;42.33
20620;BME280;10469;42.720;23.252;2022-09-01T11:55:39;94447.56;;;33.09;41.09
20620;BME280;10469;42.720;23.252;2022-09-01T11:58:10;94436.66;;;34.02;39.09
20620;BME280;10469;42.720;23.252;2022-09-01T12:00:38;94439.84;;;34.47;38.48
20620;BME280;10469;42.720;23.252;2022-09-01T12:03:25;94449.69;;;31.65;42.68
20620;BME280;10469;42.720;23.252;2022-09-01T12:05:53;94444.41;;;31.15;44.94
20620;BME280;10469;42.720;23.252;2022-09-01T12:08:25;94455.22;;;31.61;44.69
20620;BME280;10469;42.720;23.252;2022-09-01T12:11:12;94450.28;;;31.44;45.79
20620;BME280;10469;42.720;23.252;2022-09-01T12:13:57;94452.72;;;31.15;46.70
20620;BME280;10469;42.720;23.252;2022-09-01T12:16:24;94444.75;;;31.10;47.34
20620;BME280;10469;42.720;23.252;2022-09-01T12:18:52;94448.31;;;30.51;49.53
20620;BME280;10469;42.720;23.252;2022-09-01T12:26:42;94447.09;;;30.75;50.79
20620;BME280;10469;42.720;23.252;2022-09-01T12:29:10;94446.53;;;29.63;54.64
20620;BME280;10469;42.720;23.252;2022-09-01T12:31:40;94435.97;;;30.18;54.41
20620;BME280;10469;42.720;23.252;2022-09-01T12:37:10;94434.69;;;29.62;55.31
20620;BME280;10469;42.720;23.252;2022-09-01T12:39:40;94436.13;;;28.94;58.12
20620;BME280;10469;42.720;23.252;2022-09-01T12:50:07;94446.44;;;29.82;55.81
20620;BME280;10469;42.720;23.252;2022-09-01T12:52:34;94442.59;;;30.13;55.88
20620;BME280;10469;42.720;23.252;2022-09-01T12:57:32;94433.72;;;29.55;57.74
20620;BME280;10469;42.720;23.252;2022-09-01T13:00:12;94436.84;;;29.99;57.90
20620;BME280;10469;42.720;23.252;2022-09-01T13:02:42;94430.44;;;29.49;59.29
20620;BME280;10469;42.720;23.252;2022-09-01T13:07:53;94432.88;;;28.89;68.28
20620;BME280;10469;42.720;23.252;2022-09-01T13:10:19;94422.13;;;28.29;74.58
20620;BME280;10469;42.720;23.252;2022-09-01T13:12:46;94400.06;;;28.29;76.05
20620;BME280;10469;42.720;23.252;2022-09-01T13:15:12;94412.41;;;28.00;79.60
20620;BME280;10469;42.720;23.252;2022-09-01T13:17:37;94395.88;;;27.84;81.28
20620;BME280;10469;42.720;23.252;2022-09-01T13:20:05;94412.88;;;28.37;80.50
20620;BME280;10469;42.720;23.252;2022-09-01T13:22:31;94404.41;;;27.95;81.79
20620;BME280;10469;42.720;23.252;2022-09-01T13:24:56;94398.53;;;27.81;81.21
20620;BME280;10469;42.720;23.252;2022-09-01T13:27:22;94423.63;;;27.75;85.64
20620;BME280;10469;42.720;23.252;2022-09-01T13:29:48;94417.13;;;27.52;88.47
20620;BME280;10469;42.720;23.252;2022-09-01T13:32:15;94419.00;;;27.64;88.75
20620;BME280;10469;42.720;23.252;2022-09-01T13:34:41;94416.41;;;27.55;89.24
20620;BME280;10469;42.720;23.252;2022-09-01T13:37:07;94410.16;;;28.06;85.90
20620;BME280;10469;42.720;23.252;2022-09-01T13:39:32;94413.69;;;28.06;84.30
20620;BME280;10469;42.720;23.252;2022-09-01T13:41:58;94422.13;;;27.78;87.20
20620;BME280;10469;42.720;23.252;2022-09-01T13:44:23;94422.47;;;27.77;87.09
20620;BME280;10469;42.720;23.252;2022-09-01T13:46:48;94420.94;;;27.79;82.46
20620;BME280;10469;42.720;23.252;2022-09-01T13:49:14;94414.38;;;27.52;84.44
20620;BME280;10469;42.720;23.252;2022-09-01T13:51:39;94416.41;;;27.55;84.21
20620;BME280;10469;42.720;23.252;2022-09-01T13:54:05;94417.66;;;27.42;84.15
20620;BME280;10469;42.720;23.252;2022-09-01T13:56:30;94415.78;;;27.46;86.92
20620;BME280;10469;42.720;23.252;2022-09-01T13:58:56;94419.97;;;27.56;85.92
20620;BME280;10469;42.720;23.252;2022-09-01T14:01:21;94406.63;;;27.58;86.57
20620;BME280;10469;42.720;23.252;2022-09-01T14:03:48;94413.63;;;27.71;84.47
20620;BME280;10469;42.720;23.252;2022-09-01T14:06:14;94397.47;;;27.54;81.24
20620;BME280;10469;42.720;23.252;2022-09-01T14:08:40;94421.03;;;27.98;78.96
20620;BME280;10469;42.720;23.252;2022-09-01T14:11:06;94403.00;;;27.85;74.38
20620;BME280;10469;42.720;23.252;2022-09-01T14:13:32;94419.59;;;27.89;74.71
20620;BME280;10469;42.720;23.252;2022-09-01T14:15:58;94416.41;;;27.71;74.99
20620;BME280;10469;42.720;23.252;2022-09-01T14:18:24;94410.91;;;27.39;87.85
20620;BME280;10469;42.720;23.252;2022-09-01T14:21:01;94412.31;;;27.17;91.93
20620;BME280;10469;42.720;23.252;2022-09-01T14:23:27;94417.41;;;27.03;92.55
20620;BME280;10469;42.720;23.252;2022-09-01T14:25:53;94417.91;;;26.93;91.64
20620;BME280;10469;42.720;23.252;2022-09-01T14:28:19;94412.44;;;26.81;86.46
20620;BME280;10469;42.720;23.252;2022-09-01T14:30:45;94419.63;;;26.69;84.63
20620;BME280;10469;42.720;23.252;2022-09-01T14:33:12;94419.50;;;26.66;85.09
20620;BME280;10469;42.720;23.252;2022-09-01T14:35:39;94421.25;;;26.58;86.74
20620;BME280;10469;42.720;23.252;2022-09-01T14:38:05;94411.84;;;26.59;88.85
20620;BME280;10469;42.720;23.252;2022-09-01T14:40:33;94418.53;;;26.46;90.26
20620;BME280;10469;42.720;23.252;2022-09-01T14:43:00;94411.00;;;26.31;87.68
20620;BME280;10469;42.720;23.252;2022-09-01T14:45:26;94410.00;;;26.23;87.86